PWSweather.com
Personal Weather Stations
Station Observations
KTXPLANO70
Kemper Estates, Plano, TX

Kemper EstatesPlano, TX

Lat: 33.0674, Lon: -96.7659

Elevation: 737

Station Type: Davis Vantage Pro2

http://www.dallasdawg.com

High Low Average
Temperature 59.6°F15.3°C 49.3°F9.6°C 53.8°F12.1°C
Dew Point 56.1°F13.4°C 33.8°F1.0°C 47.7°F8.7°C
Winds 13.8 mph 22.2 kmh Calm Calm 7.0 mph SSE11.3 kmh SSE
Wind Gusts 21.9 mph35.2 kmh -- 10.0 mph16.1 kmh
Humidity 97% 48% 81%
Pressure 30.20 in1022.7 mb 29.89 in1012.2 mb -
Precipitation 0.38 in9.7 mm - -
Hour Temp Dew Point Humidity Winds Wind Gusts Pressure Precip Precip Rate Daily Precip Total
12:00 AM 53.5°F11.9°C 32.6°F0.3°C 45% 6.9 mph ESE11.1 kmh ESE 12.7 mph20.4 kmh 30.22 in1023.4 mb - 0.00 in0.0 mm 0.00 in0.0 mm
12:05 AM 53.5°F11.9°C 32.6°F0.3°C 45% 9.2 mph SE14.8 kmh SE 12.7 mph20.4 kmh 30.21 in1023.0 mb - 0.00 in0.0 mm 0.00 in0.0 mm
12:10 AM 53.5°F11.9°C 32.7°F0.4°C 45% 8.1 mph ESE13.0 kmh ESE 11.5 mph18.5 kmh 30.21 in1023.0 mb - 0.00 in0.0 mm 0.00 in0.0 mm
12:15 AM 53.5°F11.9°C 32.7°F0.4°C 45% 8.1 mph ESE13.0 kmh ESE 10.4 mph16.7 kmh 30.21 in1023.0 mb - 0.00 in0.0 mm 0.00 in0.0 mm
12:20 AM 53.5°F11.9°C 32.7°F0.4°C 45% 5.8 mph ESE9.3 kmh ESE 10.4 mph16.7 kmh 30.21 in1023.0 mb - 0.00 in0.0 mm 0.00 in0.0 mm
12:25 AM 53.4°F11.9°C 33.1°F0.6°C 46% 6.9 mph ESE11.1 kmh ESE 9.2 mph14.8 kmh 30.21 in1023.0 mb - 0.00 in0.0 mm 0.00 in0.0 mm
12:30 AM 53.3°F11.8°C 33.0°F0.6°C 46% 9.2 mph ESE14.8 kmh ESE 11.5 mph18.5 kmh 30.21 in1023.0 mb - 0.00 in0.0 mm 0.00 in0.0 mm
12:35 AM 53.3°F11.8°C 33.0°F0.6°C 46% 6.9 mph SE11.1 kmh SE 12.7 mph20.4 kmh 30.21 in1023.0 mb - 0.00 in0.0 mm 0.00 in0.0 mm
12:40 AM 53.3°F11.8°C 33.0°F0.6°C 46% 8.1 mph ESE13.0 kmh ESE 12.7 mph20.4 kmh 30.20 in1022.7 mb - 0.00 in0.0 mm 0.00 in0.0 mm
12:45 AM 53.3°F11.8°C 33.6°F0.9°C 47% 6.9 mph SE11.1 kmh SE 9.2 mph14.8 kmh 30.20 in1022.7 mb - 0.00 in0.0 mm 0.00 in0.0 mm
12:50 AM 53.2°F11.8°C 33.5°F0.8°C 47% 6.9 mph ESE11.1 kmh ESE 9.2 mph14.8 kmh 30.20 in1022.7 mb - 0.00 in0.0 mm 0.00 in0.0 mm
12:55 AM 53.1°F11.7°C 34.0°F1.1°C 48% 5.8 mph ESE9.3 kmh ESE 9.2 mph14.8 kmh 30.20 in1022.7 mb - 0.00 in0.0 mm 0.00 in0.0 mm
01:00 AM 53.1°F11.7°C 33.9°F1.1°C 48% 10.4 mph ESE16.7 kmh ESE 15.0 mph24.1 kmh 30.19 in1022.4 mb - 0.00 in0.0 mm 0.00 in0.0 mm
01:05 AM 53.2°F11.8°C 34.0°F1.1°C 48% 6.9 mph ESE11.1 kmh ESE 10.4 mph16.7 kmh 30.20 in1022.7 mb - 0.00 in0.0 mm 0.00 in0.0 mm
01:10 AM 53.1°F11.7°C 33.9°F1.1°C 48% 6.9 mph ESE11.1 kmh ESE 10.4 mph16.7 kmh 30.20 in1022.7 mb - 0.00 in0.0 mm 0.00 in0.0 mm
01:15 AM 53.2°F11.8°C 34.0°F1.1°C 48% 9.2 mph SE14.8 kmh SE 12.7 mph20.4 kmh 30.20 in1022.7 mb - 0.00 in0.0 mm 0.00 in0.0 mm
01:20 AM 53.2°F11.8°C 34.0°F1.1°C 48% 12.7 mph SE20.4 kmh SE 15.0 mph24.1 kmh 30.20 in1022.7 mb - 0.00 in0.0 mm 0.00 in0.0 mm
01:25 AM 53.1°F11.7°C 33.9°F1.1°C 48% 8.1 mph SE13.0 kmh SE 11.5 mph18.5 kmh 30.19 in1022.4 mb - 0.00 in0.0 mm 0.00 in0.0 mm
01:30 AM 53.0°F11.7°C 33.8°F1.0°C 48% 11.5 mph ESE18.5 kmh ESE 13.8 mph22.2 kmh 30.19 in1022.4 mb - 0.00 in0.0 mm 0.00 in0.0 mm
01:35 AM 53.2°F11.8°C 34.0°F1.1°C 48% 8.1 mph SE13.0 kmh SE 11.5 mph18.5 kmh 30.19 in1022.4 mb - 0.00 in0.0 mm 0.00 in0.0 mm
01:40 AM 53.0°F11.7°C 33.8°F1.0°C 48% 9.2 mph SE14.8 kmh SE 13.8 mph22.2 kmh 30.19 in1022.4 mb - 0.00 in0.0 mm 0.00 in0.0 mm
01:45 AM 53.0°F11.7°C 33.8°F1.0°C 48% 6.9 mph SE11.1 kmh SE 13.8 mph22.2 kmh 30.19 in1022.4 mb - 0.00 in0.0 mm 0.00 in0.0 mm
01:50 AM 53.2°F11.8°C 34.5°F1.4°C 49% 12.7 mph SE20.4 kmh SE 13.8 mph22.2 kmh 30.19 in1022.4 mb - 0.00 in0.0 mm 0.00 in0.0 mm
01:55 AM 53.2°F11.8°C 34.5°F1.4°C 49% 5.8 mph SE9.3 kmh SE 11.5 mph18.5 kmh 30.19 in1022.4 mb - 0.00 in0.0 mm 0.00 in0.0 mm
02:00 AM 53.2°F11.8°C 34.5°F1.4°C 49% 8.1 mph ESE13.0 kmh ESE 11.5 mph18.5 kmh 30.19 in1022.4 mb - 0.00 in0.0 mm 0.00 in0.0 mm
02:05 AM 53.2°F11.8°C 35.0°F1.7°C 50% 9.2 mph SE14.8 kmh SE 12.7 mph20.4 kmh 30.18 in1022.0 mb - 0.00 in0.0 mm 0.00 in0.0 mm
02:10 AM 53.0°F11.7°C 35.4°F1.9°C 51% 8.1 mph SE13.0 kmh SE 12.7 mph20.4 kmh 30.18 in1022.0 mb - 0.00 in0.0 mm 0.00 in0.0 mm
02:15 AM 53.1°F11.7°C 35.9°F2.2°C 52% 8.1 mph SE13.0 kmh SE 9.2 mph14.8 kmh 30.18 in1022.0 mb - 0.00 in0.0 mm 0.00 in0.0 mm
02:20 AM 53.0°F11.7°C 36.3°F2.4°C 53% 9.2 mph SE14.8 kmh SE 12.7 mph20.4 kmh 30.18 in1022.0 mb - 0.00 in0.0 mm 0.00 in0.0 mm
02:25 AM 52.9°F11.6°C 36.7°F2.6°C 54% 10.4 mph SE16.7 kmh SE 13.8 mph22.2 kmh 30.17 in1021.7 mb - 0.00 in0.0 mm 0.00 in0.0 mm
02:30 AM 52.9°F11.6°C 37.2°F2.9°C 55% 11.5 mph SE18.5 kmh SE 12.7 mph20.4 kmh 30.17 in1021.7 mb - 0.00 in0.0 mm 0.00 in0.0 mm
02:35 AM 52.9°F11.6°C 37.6°F3.1°C 56% 6.9 mph SE11.1 kmh SE 9.2 mph14.8 kmh 30.17 in1021.7 mb - 0.00 in0.0 mm 0.00 in0.0 mm
02:40 AM 52.8°F11.6°C 38.0°F3.3°C 57% 8.1 mph SE13.0 kmh SE 16.1 mph25.9 kmh 30.17 in1021.7 mb - 0.00 in0.0 mm 0.00 in0.0 mm
02:45 AM 52.8°F11.6°C 38.4°F3.6°C 58% 8.1 mph SE13.0 kmh SE 12.7 mph20.4 kmh 30.16 in1021.3 mb - 0.00 in0.0 mm 0.00 in0.0 mm
02:50 AM 52.7°F11.5°C 38.8°F3.8°C 59% 10.4 mph SE16.7 kmh SE 13.8 mph22.2 kmh 30.16 in1021.3 mb - 0.00 in0.0 mm 0.00 in0.0 mm
02:55 AM 52.6°F11.4°C 39.1°F3.9°C 60% 6.9 mph SE11.1 kmh SE 12.7 mph20.4 kmh 30.16 in1021.3 mb - 0.00 in0.0 mm 0.00 in0.0 mm
03:00 AM 52.5°F11.4°C 39.4°F4.1°C 61% 10.4 mph SE16.7 kmh SE 13.8 mph22.2 kmh 30.16 in1021.3 mb - 0.00 in0.0 mm 0.00 in0.0 mm
03:05 AM 52.4°F11.3°C 39.8°F4.3°C 62% 12.7 mph SE20.4 kmh SE 16.1 mph25.9 kmh 30.16 in1021.3 mb - 0.00 in0.0 mm 0.00 in0.0 mm
03:10 AM 52.4°F11.3°C 39.8°F4.3°C 62% 8.1 mph SE13.0 kmh SE 12.7 mph20.4 kmh 30.16 in1021.3 mb - 0.00 in0.0 mm 0.00 in0.0 mm
03:15 AM 52.4°F11.3°C 40.2°F4.6°C 63% 11.5 mph SE18.5 kmh SE 12.7 mph20.4 kmh 30.16 in1021.3 mb - 0.00 in0.0 mm 0.00 in0.0 mm
03:20 AM 52.4°F11.3°C 40.2°F4.6°C 63% 8.1 mph SE13.0 kmh SE 12.7 mph20.4 kmh 30.16 in1021.3 mb - 0.00 in0.0 mm 0.00 in0.0 mm
03:25 AM 52.3°F11.3°C 40.5°F4.7°C 64% 11.5 mph SE18.5 kmh SE 16.1 mph25.9 kmh 30.15 in1021.0 mb - 0.00 in0.0 mm 0.00 in0.0 mm
03:30 AM 52.3°F11.3°C 40.9°F4.9°C 65% 6.9 mph SE11.1 kmh SE 13.8 mph22.2 kmh 30.15 in1021.0 mb - 0.00 in0.0 mm 0.00 in0.0 mm
03:35 AM 52.3°F11.3°C 40.9°F4.9°C 65% 11.5 mph ESE18.5 kmh ESE 20.7 mph33.3 kmh 30.15 in1021.0 mb - 0.00 in0.0 mm 0.00 in0.0 mm
03:40 AM 52.2°F11.2°C 41.2°F5.1°C 66% 9.2 mph SE14.8 kmh SE 13.8 mph22.2 kmh 30.15 in1021.0 mb - 0.00 in0.0 mm 0.00 in0.0 mm
03:45 AM 52.2°F11.2°C 41.6°F5.3°C 67% 9.2 mph SE14.8 kmh SE 12.7 mph20.4 kmh 30.15 in1021.0 mb - 0.00 in0.0 mm 0.00 in0.0 mm
03:50 AM 52.2°F11.2°C 41.6°F5.3°C 67% 6.9 mph SE11.1 kmh SE 10.4 mph16.7 kmh 30.15 in1021.0 mb - 0.00 in0.0 mm 0.00 in0.0 mm
03:55 AM 52.2°F11.2°C 42.0°F5.6°C 68% 6.9 mph SE11.1 kmh SE 11.5 mph18.5 kmh 30.15 in1021.0 mb - 0.00 in0.0 mm 0.00 in0.0 mm
04:00 AM 52.1°F11.2°C 42.2°F5.7°C 69% 9.2 mph SE14.8 kmh SE 16.1 mph25.9 kmh 30.15 in1021.0 mb - 0.00 in0.0 mm 0.00 in0.0 mm
04:05 AM 52.0°F11.1°C 42.1°F5.6°C 69% 9.2 mph SE14.8 kmh SE 18.4 mph29.6 kmh 30.15 in1021.0 mb - 0.00 in0.0 mm 0.00 in0.0 mm
04:10 AM 51.9°F11.1°C 42.0°F5.6°C 69% 6.9 mph SE11.1 kmh SE 16.1 mph25.9 kmh 30.14 in1020.7 mb - 0.00 in0.0 mm 0.00 in0.0 mm
04:15 AM 51.8°F11.0°C 42.0°F5.6°C 69% 8.1 mph SE13.0 kmh SE 12.7 mph20.4 kmh 30.14 in1020.7 mb - 0.00 in0.0 mm 0.00 in0.0 mm
04:20 AM 51.7°F10.9°C 41.9°F5.5°C 69% 8.1 mph SE13.0 kmh SE 15.0 mph24.1 kmh 30.14 in1020.7 mb - 0.00 in0.0 mm 0.00 in0.0 mm
04:25 AM 51.7°F10.9°C 42.2°F5.7°C 70% 6.9 mph SE11.1 kmh SE 10.4 mph16.7 kmh 30.14 in1020.7 mb - 0.00 in0.0 mm 0.00 in0.0 mm
04:30 AM 51.6°F10.9°C 42.1°F5.6°C 70% 6.9 mph SE11.1 kmh SE 10.4 mph16.7 kmh 30.14 in1020.7 mb - 0.00 in0.0 mm 0.00 in0.0 mm
04:35 AM 51.5°F10.8°C 42.0°F5.6°C 70% 5.8 mph ESE9.3 kmh ESE 9.2 mph14.8 kmh 30.14 in1020.7 mb - 0.00 in0.0 mm 0.00 in0.0 mm
04:40 AM 51.5°F10.8°C 42.4°F5.8°C 71% 9.2 mph SE14.8 kmh SE 16.1 mph25.9 kmh 30.13 in1020.3 mb - 0.00 in0.0 mm 0.00 in0.0 mm
04:45 AM 51.4°F10.8°C 42.3°F5.7°C 71% 11.5 mph SE18.5 kmh SE 21.9 mph35.2 kmh 30.13 in1020.3 mb - 0.00 in0.0 mm 0.00 in0.0 mm
04:50 AM 51.4°F10.8°C 42.3°F5.7°C 71% 8.1 mph SE13.0 kmh SE 12.7 mph20.4 kmh 30.13 in1020.3 mb - 0.00 in0.0 mm 0.00 in0.0 mm
04:55 AM 51.4°F10.8°C 42.3°F5.7°C 71% 5.8 mph SE9.3 kmh SE 11.5 mph18.5 kmh 30.13 in1020.3 mb - 0.00 in0.0 mm 0.00 in0.0 mm
05:00 AM 51.4°F10.8°C 42.3°F5.7°C 71% 8.1 mph SE13.0 kmh SE 10.4 mph16.7 kmh 30.13 in1020.3 mb - 0.00 in0.0 mm 0.00 in0.0 mm
05:05 AM 51.3°F10.7°C 42.2°F5.7°C 71% 6.9 mph SE11.1 kmh SE 9.2 mph14.8 kmh 30.14 in1020.7 mb - 0.00 in0.0 mm 0.00 in0.0 mm
05:10 AM 51.3°F10.7°C 42.2°F5.7°C 71% 4.6 mph SE7.4 kmh SE 4.6 mph7.4 kmh 30.13 in1020.3 mb - 0.00 in0.0 mm 0.00 in0.0 mm
05:15 AM 51.2°F10.7°C 42.1°F5.6°C 71% 9.2 mph SE14.8 kmh SE 12.7 mph20.4 kmh 30.13 in1020.3 mb - 0.00 in0.0 mm 0.00 in0.0 mm
05:20 AM 51.2°F10.7°C 42.5°F5.8°C 72% 6.9 mph SE11.1 kmh SE 9.2 mph14.8 kmh 30.13 in1020.3 mb - 0.00 in0.0 mm 0.00 in0.0 mm
05:25 AM 51.1°F10.6°C 42.4°F5.8°C 72% 6.9 mph SE11.1 kmh SE 9.2 mph14.8 kmh 30.13 in1020.3 mb - 0.00 in0.0 mm 0.00 in0.0 mm
05:30 AM 51.1°F10.6°C 42.4°F5.8°C 72% 6.9 mph ESE11.1 kmh ESE 10.4 mph16.7 kmh 30.13 in1020.3 mb - 0.00 in0.0 mm 0.00 in0.0 mm
05:35 AM 51.0°F10.6°C 42.3°F5.7°C 72% 9.2 mph SE14.8 kmh SE 12.7 mph20.4 kmh 30.12 in1020.0 mb - 0.00 in0.0 mm 0.00 in0.0 mm
05:40 AM 51.0°F10.6°C 42.3°F5.7°C 72% 6.9 mph SE11.1 kmh SE 12.7 mph20.4 kmh 30.12 in1020.0 mb - 0.00 in0.0 mm 0.00 in0.0 mm
05:45 AM 51.0°F10.6°C 42.3°F5.7°C 72% 8.1 mph SE13.0 kmh SE 13.8 mph22.2 kmh 30.11 in1019.6 mb - 0.00 in0.0 mm 0.00 in0.0 mm
05:50 AM 50.9°F10.5°C 42.2°F5.7°C 72% 9.2 mph SE14.8 kmh SE 11.5 mph18.5 kmh 30.11 in1019.6 mb - 0.00 in0.0 mm 0.00 in0.0 mm
05:55 AM 50.9°F10.5°C 42.2°F5.7°C 72% 9.2 mph SE14.8 kmh SE 13.8 mph22.2 kmh 30.11 in1019.6 mb - 0.00 in0.0 mm 0.00 in0.0 mm
06:00 AM 50.9°F10.5°C 42.2°F5.7°C 72% 9.2 mph SE14.8 kmh SE 11.5 mph18.5 kmh 30.10 in1019.3 mb - 0.00 in0.0 mm 0.00 in0.0 mm
06:05 AM 50.8°F10.4°C 42.1°F5.6°C 72% 8.1 mph ESE13.0 kmh ESE 19.6 mph31.5 kmh 30.10 in1019.3 mb - 0.00 in0.0 mm 0.00 in0.0 mm
06:10 AM 50.7°F10.4°C 41.6°F5.3°C 71% 8.1 mph SE13.0 kmh SE 9.2 mph14.8 kmh 30.10 in1019.3 mb - 0.00 in0.0 mm 0.00 in0.0 mm
06:15 AM 50.6°F10.3°C 41.5°F5.3°C 71% 9.2 mph SE14.8 kmh SE 9.2 mph14.8 kmh 30.10 in1019.3 mb - 0.00 in0.0 mm 0.00 in0.0 mm
06:20 AM 50.6°F10.3°C 41.5°F5.3°C 71% 8.1 mph SE13.0 kmh SE 17.3 mph27.8 kmh 30.10 in1019.3 mb - 0.00 in0.0 mm 0.00 in0.0 mm
06:25 AM 50.5°F10.3°C 41.4°F5.2°C 71% 8.1 mph SE13.0 kmh SE 11.5 mph18.5 kmh 30.10 in1019.3 mb - 0.00 in0.0 mm 0.00 in0.0 mm
06:30 AM 50.4°F10.2°C 41.4°F5.2°C 71% 8.1 mph SE13.0 kmh SE 13.8 mph22.2 kmh 30.10 in1019.3 mb - 0.00 in0.0 mm 0.00 in0.0 mm
06:35 AM 50.3°F10.2°C 41.6°F5.3°C 72% 5.8 mph SE9.3 kmh SE 11.5 mph18.5 kmh 30.10 in1019.3 mb - 0.00 in0.0 mm 0.00 in0.0 mm
06:40 AM 50.3°F10.2°C 41.3°F5.2°C 71% 8.1 mph SE13.0 kmh SE 10.4 mph16.7 kmh 30.09 in1019.0 mb - 0.00 in0.0 mm 0.00 in0.0 mm
06:45 AM 50.3°F10.2°C 41.6°F5.3°C 72% 8.1 mph SE13.0 kmh SE 12.7 mph20.4 kmh 30.09 in1019.0 mb - 0.00 in0.0 mm 0.00 in0.0 mm
06:50 AM 50.2°F10.1°C 41.1°F5.1°C 71% 10.4 mph SE16.7 kmh SE 19.6 mph31.5 kmh 30.09 in1019.0 mb - 0.00 in0.0 mm 0.00 in0.0 mm
06:55 AM 50.1°F10.1°C 41.1°F5.1°C 71% 11.5 mph SE18.5 kmh SE 18.4 mph29.6 kmh 30.08 in1018.6 mb - 0.00 in0.0 mm 0.00 in0.0 mm
07:00 AM 50.0°F10.0°C 41.0°F5.0°C 71% 8.1 mph SE13.0 kmh SE 15.0 mph24.1 kmh 30.08 in1018.6 mb - 0.00 in0.0 mm 0.00 in0.0 mm
07:05 AM 49.9°F9.9°C 40.9°F4.9°C 71% 9.2 mph SE14.8 kmh SE 12.7 mph20.4 kmh 30.07 in1018.3 mb - 0.00 in0.0 mm 0.00 in0.0 mm
07:10 AM 49.8°F9.9°C 40.8°F4.9°C 71% 10.4 mph SE16.7 kmh SE 12.7 mph20.4 kmh 30.07 in1018.3 mb - 0.00 in0.0 mm 0.00 in0.0 mm
07:15 AM 49.8°F9.9°C 40.8°F4.9°C 71% 11.5 mph SE18.5 kmh SE 13.8 mph22.2 kmh 30.07 in1018.3 mb - 0.00 in0.0 mm 0.00 in0.0 mm
07:20 AM 49.7°F9.8°C 41.0°F5.0°C 72% 10.4 mph SE16.7 kmh SE 19.6 mph31.5 kmh 30.07 in1018.3 mb - 0.00 in0.0 mm 0.00 in0.0 mm
07:25 AM 49.7°F9.8°C 41.0°F5.0°C 72% 9.2 mph SE14.8 kmh SE 17.3 mph27.8 kmh 30.07 in1018.3 mb - 0.00 in0.0 mm 0.00 in0.0 mm
07:30 AM 49.7°F9.8°C 41.0°F5.0°C 72% 8.1 mph SE13.0 kmh SE 12.7 mph20.4 kmh 30.07 in1018.3 mb - 0.00 in0.0 mm 0.00 in0.0 mm
07:35 AM 49.8°F9.9°C 41.1°F5.1°C 72% 12.7 mph SE20.4 kmh SE 19.6 mph31.5 kmh 30.07 in1018.3 mb - 0.00 in0.0 mm 0.00 in0.0 mm
07:40 AM 49.8°F9.9°C 41.1°F5.1°C 72% 9.2 mph SE14.8 kmh SE 13.8 mph22.2 kmh 30.07 in1018.3 mb - 0.00 in0.0 mm 0.00 in0.0 mm
07:45 AM 49.8°F9.9°C 41.1°F5.1°C 72% 12.7 mph SE20.4 kmh SE 17.3 mph27.8 kmh 30.08 in1018.6 mb - 0.00 in0.0 mm 0.00 in0.0 mm
07:50 AM 49.8°F9.9°C 41.1°F5.1°C 72% 10.4 mph SE16.7 kmh SE 16.1 mph25.9 kmh 30.07 in1018.3 mb - 0.00 in0.0 mm 0.00 in0.0 mm
07:55 AM 49.8°F9.9°C 41.1°F5.1°C 72% 9.2 mph SE14.8 kmh SE 12.7 mph20.4 kmh 30.08 in1018.6 mb - 0.00 in0.0 mm 0.00 in0.0 mm
08:00 AM 49.8°F9.9°C 41.1°F5.1°C 72% 6.9 mph SSE11.1 kmh SSE 11.5 mph18.5 kmh 30.08 in1018.6 mb - 0.00 in0.0 mm 0.00 in0.0 mm
08:05 AM 49.7°F9.8°C 41.0°F5.0°C 72% 11.5 mph SE18.5 kmh SE 15.0 mph24.1 kmh 30.08 in1018.6 mb - 0.00 in0.0 mm 0.00 in0.0 mm
08:10 AM 49.7°F9.8°C 41.0°F5.0°C 72% 8.1 mph SE13.0 kmh SE 11.5 mph18.5 kmh 30.07 in1018.3 mb - 0.00 in0.0 mm 0.00 in0.0 mm
08:15 AM 49.6°F9.8°C 40.9°F4.9°C 72% 8.1 mph SE13.0 kmh SE 11.5 mph18.5 kmh 30.07 in1018.3 mb - 0.00 in0.0 mm 0.00 in0.0 mm
08:20 AM 49.6°F9.8°C 40.9°F4.9°C 72% 6.9 mph SE11.1 kmh SE 11.5 mph18.5 kmh 30.07 in1018.3 mb - 0.00 in0.0 mm 0.00 in0.0 mm
08:25 AM 49.5°F9.7°C 40.8°F4.9°C 72% 9.2 mph SE14.8 kmh SE 12.7 mph20.4 kmh 30.08 in1018.6 mb - 0.00 in0.0 mm 0.00 in0.0 mm
08:30 AM 49.5°F9.7°C 40.8°F4.9°C 72% 8.1 mph SE13.0 kmh SE 12.7 mph20.4 kmh 30.08 in1018.6 mb - 0.00 in0.0 mm 0.00 in0.0 mm
08:35 AM 49.4°F9.7°C 40.7°F4.8°C 72% 11.5 mph SE18.5 kmh SE 16.1 mph25.9 kmh 30.07 in1018.3 mb - 0.00 in0.0 mm 0.00 in0.0 mm
08:40 AM 49.4°F9.7°C 40.8°F4.9°C 72% 6.9 mph SE11.1 kmh SE 8.1 mph13.0 kmh 30.07 in1018.3 mb - 0.00 in0.0 mm 0.00 in0.0 mm
08:45 AM 49.4°F9.7°C 40.7°F4.8°C 72% 4.6 mph SE7.4 kmh SE 10.4 mph16.7 kmh 30.07 in1018.3 mb - 0.00 in0.0 mm 0.00 in0.0 mm
08:50 AM 49.3°F9.6°C 40.7°F4.8°C 72% 8.1 mph SE13.0 kmh SE 10.4 mph16.7 kmh 30.07 in1018.3 mb - 0.00 in0.0 mm 0.00 in0.0 mm
08:55 AM 49.3°F9.6°C 41.0°F5.0°C 73% 8.1 mph SE13.0 kmh SE 13.8 mph22.2 kmh 30.08 in1018.6 mb - 0.00 in0.0 mm 0.00 in0.0 mm
09:00 AM 49.3°F9.6°C 41.0°F5.0°C 73% 6.9 mph SE11.1 kmh SE 9.2 mph14.8 kmh 30.08 in1018.6 mb - 0.00 in0.0 mm 0.00 in0.0 mm
09:05 AM 49.3°F9.6°C 41.0°F5.0°C 73% 5.8 mph SE9.3 kmh SE 8.1 mph13.0 kmh 30.08 in1018.6 mb - 0.00 in0.0 mm 0.00 in0.0 mm
09:10 AM 49.3°F9.6°C 41.0°F5.0°C 73% 8.1 mph SE13.0 kmh SE 12.7 mph20.4 kmh 30.08 in1018.6 mb - 0.00 in0.0 mm 0.00 in0.0 mm
09:15 AM 49.3°F9.6°C 41.4°F5.2°C 74% 8.1 mph SE13.0 kmh SE 10.4 mph16.7 kmh 30.07 in1018.3 mb - 0.00 in0.0 mm 0.00 in0.0 mm
09:20 AM 49.4°F9.7°C 41.5°F5.3°C 74% 9.2 mph SE14.8 kmh SE 15.0 mph24.1 kmh 30.07 in1018.3 mb - 0.00 in0.0 mm 0.00 in0.0 mm
09:25 AM 49.4°F9.7°C 41.5°F5.3°C 74% 6.9 mph SE11.1 kmh SE 12.7 mph20.4 kmh 30.07 in1018.3 mb - 0.00 in0.0 mm 0.00 in0.0 mm
09:30 AM 49.6°F9.8°C 42.0°F5.6°C 75% 8.1 mph SE13.0 kmh SE 9.2 mph14.8 kmh 30.07 in1018.3 mb - 0.00 in0.0 mm 0.00 in0.0 mm
09:35 AM 49.6°F9.8°C 42.0°F5.6°C 75% 11.5 mph SE18.5 kmh SE 16.1 mph25.9 kmh 30.06 in1017.9 mb - 0.00 in0.0 mm 0.00 in0.0 mm
09:40 AM 49.7°F9.8°C 42.4°F5.8°C 76% 9.2 mph SE14.8 kmh SE 11.5 mph18.5 kmh 30.05 in1017.6 mb - 0.00 in0.0 mm 0.00 in0.0 mm
09:45 AM 49.8°F9.9°C 42.5°F5.8°C 76% 6.9 mph SE11.1 kmh SE 10.4 mph16.7 kmh 30.05 in1017.6 mb - 0.00 in0.0 mm 0.00 in0.0 mm
09:50 AM 49.8°F9.9°C 42.5°F5.8°C 76% 12.7 mph SE20.4 kmh SE 16.1 mph25.9 kmh 30.05 in1017.6 mb - 0.00 in0.0 mm 0.00 in0.0 mm
09:55 AM 49.9°F9.9°C 42.6°F5.9°C 76% 10.4 mph SE16.7 kmh SE 12.7 mph20.4 kmh 30.05 in1017.6 mb - 0.00 in0.0 mm 0.00 in0.0 mm
10:00 AM 50.0°F10.0°C 42.7°F5.9°C 76% 8.1 mph SE13.0 kmh SE 12.7 mph20.4 kmh 30.05 in1017.6 mb - 0.00 in0.0 mm 0.00 in0.0 mm
10:05 AM 50.0°F10.0°C 42.7°F5.9°C 76% 13.8 mph SE22.2 kmh SE 17.3 mph27.8 kmh 30.05 in1017.6 mb - 0.00 in0.0 mm 0.00 in0.0 mm
10:10 AM 50.0°F10.0°C 42.7°F5.9°C 76% 10.4 mph SE16.7 kmh SE 15.0 mph24.1 kmh 30.04 in1017.3 mb - 0.00 in0.0 mm 0.00 in0.0 mm
10:15 AM 50.0°F10.0°C 42.7°F5.9°C 76% 10.4 mph SE16.7 kmh SE 13.8 mph22.2 kmh 30.03 in1016.9 mb - 0.00 in0.0 mm 0.00 in0.0 mm
10:20 AM 50.1°F10.1°C 43.2°F6.2°C 77% 10.4 mph SE16.7 kmh SE 21.9 mph35.2 kmh 30.03 in1016.9 mb - 0.00 in0.0 mm 0.00 in0.0 mm
10:25 AM 50.1°F10.1°C 43.2°F6.2°C 77% 11.5 mph SE18.5 kmh SE 15.0 mph24.1 kmh 30.03 in1016.9 mb - 0.00 in0.0 mm 0.00 in0.0 mm
10:30 AM 50.3°F10.2°C 43.4°F6.3°C 77% 8.1 mph SE13.0 kmh SE 11.5 mph18.5 kmh 30.03 in1016.9 mb - 0.00 in0.0 mm 0.00 in0.0 mm
10:35 AM 50.3°F10.2°C 43.4°F6.3°C 77% 6.9 mph ESE11.1 kmh ESE 15.0 mph24.1 kmh 30.03 in1016.9 mb - 0.00 in0.0 mm 0.00 in0.0 mm
10:40 AM 50.5°F10.3°C 43.9°F6.6°C 78% 9.2 mph SE14.8 kmh SE 11.5 mph18.5 kmh 30.03 in1016.9 mb - 0.00 in0.0 mm 0.00 in0.0 mm
10:45 AM 50.6°F10.3°C 44.0°F6.7°C 78% 8.1 mph SSE13.0 kmh SSE 15.0 mph24.1 kmh 30.03 in1016.9 mb - 0.00 in0.0 mm 0.00 in0.0 mm
10:50 AM 50.6°F10.3°C 44.3°F6.8°C 79% 8.1 mph SE13.0 kmh SE 11.5 mph18.5 kmh 30.04 in1017.3 mb - 0.00 in0.0 mm 0.00 in0.0 mm
10:55 AM 50.6°F10.3°C 44.3°F6.8°C 79% 8.1 mph SE13.0 kmh SE 11.5 mph18.5 kmh 30.05 in1017.6 mb - 0.00 in0.0 mm 0.00 in0.0 mm
11:00 AM 50.6°F10.3°C 44.3°F6.8°C 79% 11.5 mph SE18.5 kmh SE 16.1 mph25.9 kmh 30.04 in1017.3 mb - 0.00 in0.0 mm 0.00 in0.0 mm
11:05 AM 50.8°F10.4°C 44.8°F7.1°C 80% 8.1 mph SE13.0 kmh SE 12.7 mph20.4 kmh 30.04 in1017.3 mb - 0.00 in0.0 mm 0.00 in0.0 mm
11:10 AM 50.9°F10.5°C 44.9°F7.2°C 80% 9.2 mph SE14.8 kmh SE 11.5 mph18.5 kmh 30.04 in1017.3 mb - 0.00 in0.0 mm 0.00 in0.0 mm
11:15 AM 50.9°F10.5°C 44.9°F7.2°C 80% 9.2 mph SE14.8 kmh SE 9.2 mph14.8 kmh 30.04 in1017.3 mb - 0.00 in0.0 mm 0.00 in0.0 mm
11:20 AM 51.0°F10.6°C 45.4°F7.4°C 81% 8.1 mph SE13.0 kmh SE 9.2 mph14.8 kmh 30.03 in1016.9 mb - 0.00 in0.0 mm 0.00 in0.0 mm
11:25 AM 51.1°F10.6°C 45.5°F7.5°C 81% 9.2 mph SE14.8 kmh SE 16.1 mph25.9 kmh 30.03 in1016.9 mb - 0.00 in0.0 mm 0.00 in0.0 mm
11:30 AM 51.2°F10.7°C 45.6°F7.6°C 81% 9.2 mph SE14.8 kmh SE 16.1 mph25.9 kmh 30.03 in1016.9 mb - 0.00 in0.0 mm 0.00 in0.0 mm
11:35 AM 51.4°F10.8°C 45.8°F7.7°C 81% 9.2 mph SE14.8 kmh SE 13.8 mph22.2 kmh 30.03 in1016.9 mb - 0.00 in0.0 mm 0.00 in0.0 mm
11:40 AM 51.4°F10.8°C 46.1°F7.8°C 82% 8.1 mph SE13.0 kmh SE 10.4 mph16.7 kmh 30.02 in1016.6 mb - 0.00 in0.0 mm 0.00 in0.0 mm
11:45 AM 51.5°F10.8°C 46.2°F7.9°C 82% 11.5 mph SE18.5 kmh SE 12.7 mph20.4 kmh 30.02 in1016.6 mb - 0.00 in0.0 mm 0.00 in0.0 mm
11:50 AM 51.6°F10.9°C 46.3°F7.9°C 82% 8.1 mph SE13.0 kmh SE 12.7 mph20.4 kmh 30.03 in1016.9 mb - 0.00 in0.0 mm 0.00 in0.0 mm
11:55 AM 51.7°F10.9°C 46.4°F8.0°C 82% 5.8 mph SE9.3 kmh SE 15.0 mph24.1 kmh 30.02 in1016.6 mb - 0.00 in0.0 mm 0.00 in0.0 mm
12:00 PM 51.9°F11.1°C 46.6°F8.1°C 82% 5.8 mph SSE9.3 kmh SSE 11.5 mph18.5 kmh 30.02 in1016.6 mb - 0.00 in0.0 mm 0.00 in0.0 mm
12:05 PM 52.0°F11.1°C 47.0°F8.3°C 83% 6.9 mph SSE11.1 kmh SSE 15.0 mph24.1 kmh 30.02 in1016.6 mb - 0.00 in0.0 mm 0.00 in0.0 mm
12:10 PM 52.1°F11.2°C 47.1°F8.4°C 83% 9.2 mph SE14.8 kmh SE 12.7 mph20.4 kmh 30.02 in1016.6 mb - 0.00 in0.0 mm 0.00 in0.0 mm
12:15 PM 52.3°F11.3°C 47.3°F8.5°C 83% 5.8 mph SSE9.3 kmh SSE 10.4 mph16.7 kmh 30.01 in1016.3 mb - 0.00 in0.0 mm 0.00 in0.0 mm
12:20 PM 52.5°F11.4°C 47.5°F8.6°C 83% 6.9 mph SE11.1 kmh SE 12.7 mph20.4 kmh 30.01 in1016.3 mb - 0.00 in0.0 mm 0.00 in0.0 mm
12:25 PM 52.7°F11.5°C 47.7°F8.7°C 83% 6.9 mph SE11.1 kmh SE 16.1 mph25.9 kmh 30.00 in1015.9 mb - 0.00 in0.0 mm 0.00 in0.0 mm
12:30 PM 52.9°F11.6°C 47.9°F8.8°C 83% 10.4 mph SE16.7 kmh SE 16.1 mph25.9 kmh 30.00 in1015.9 mb - 0.00 in0.0 mm 0.00 in0.0 mm
12:35 PM 53.2°F11.8°C 48.2°F9.0°C 83% 8.1 mph SSE13.0 kmh SSE 12.7 mph20.4 kmh 30.00 in1015.9 mb - 0.00 in0.0 mm 0.00 in0.0 mm
12:40 PM 53.3°F11.8°C 48.3°F9.1°C 83% 5.8 mph SE9.3 kmh SE 13.8 mph22.2 kmh 29.99 in1015.6 mb - 0.00 in0.0 mm 0.00 in0.0 mm
12:45 PM 53.6°F12.0°C 48.5°F9.2°C 83% 5.8 mph SSE9.3 kmh SSE 11.5 mph18.5 kmh 29.99 in1015.6 mb - 0.00 in0.0 mm 0.00 in0.0 mm
12:50 PM 53.7°F12.1°C 48.7°F9.3°C 83% 5.8 mph SSE9.3 kmh SSE 9.2 mph14.8 kmh 29.99 in1015.6 mb - 0.00 in0.0 mm 0.00 in0.0 mm
12:55 PM 53.9°F12.2°C 49.2°F9.6°C 84% 5.8 mph SSE9.3 kmh SSE 12.7 mph20.4 kmh 29.98 in1015.2 mb - 0.00 in0.0 mm 0.00 in0.0 mm
01:00 PM 54.1°F12.3°C 49.4°F9.7°C 84% 4.6 mph SE7.4 kmh SE 9.2 mph14.8 kmh 29.98 in1015.2 mb - 0.00 in0.0 mm 0.00 in0.0 mm
01:05 PM 54.3°F12.4°C 49.2°F9.6°C 83% 5.8 mph SE9.3 kmh SE 15.0 mph24.1 kmh 29.97 in1014.9 mb - 0.00 in0.0 mm 0.00 in0.0 mm
01:10 PM 54.4°F12.4°C 49.7°F9.8°C 84% 5.8 mph SE9.3 kmh SE 8.1 mph13.0 kmh 29.97 in1014.9 mb - 0.00 in0.0 mm 0.00 in0.0 mm
01:15 PM 54.6°F12.6°C 49.8°F9.9°C 84% 5.8 mph SSE9.3 kmh SSE 9.2 mph14.8 kmh 29.97 in1014.9 mb - 0.00 in0.0 mm 0.00 in0.0 mm
01:20 PM 54.8°F12.7°C 50.1°F10.1°C 84% 4.6 mph SE7.4 kmh SE 8.1 mph13.0 kmh 29.96 in1014.6 mb - 0.00 in0.0 mm 0.00 in0.0 mm
01:25 PM 55.0°F12.8°C 50.3°F10.2°C 84% 6.9 mph SE11.1 kmh SE 9.2 mph14.8 kmh 29.96 in1014.6 mb - 0.00 in0.0 mm 0.00 in0.0 mm
01:30 PM 55.3°F12.9°C 50.2°F10.1°C 83% 6.9 mph SE11.1 kmh SE 11.5 mph18.5 kmh 29.95 in1014.2 mb - 0.00 in0.0 mm 0.00 in0.0 mm
01:35 PM 55.4°F13.0°C 50.6°F10.3°C 84% 5.8 mph SE9.3 kmh SE 8.1 mph13.0 kmh 29.95 in1014.2 mb - 0.00 in0.0 mm 0.00 in0.0 mm
01:40 PM 55.6°F13.1°C 50.8°F10.4°C 84% 8.1 mph SE13.0 kmh SE 12.7 mph20.4 kmh 29.94 in1013.9 mb - 0.00 in0.0 mm 0.00 in0.0 mm
01:45 PM 55.8°F13.2°C 50.7°F10.4°C 83% 5.8 mph SSE9.3 kmh SSE 6.9 mph11.1 kmh 29.94 in1013.9 mb - 0.00 in0.0 mm 0.00 in0.0 mm
01:50 PM 55.9°F13.3°C 51.2°F10.7°C 84% 5.8 mph SE9.3 kmh SE 10.4 mph16.7 kmh 29.94 in1013.9 mb - 0.00 in0.0 mm 0.00 in0.0 mm
01:55 PM 56.0°F13.3°C 51.2°F10.7°C 84% 8.1 mph SSE13.0 kmh SSE 10.4 mph16.7 kmh 29.94 in1013.9 mb - 0.00 in0.0 mm 0.00 in0.0 mm
02:00 PM 56.0°F13.3°C 51.6°F10.9°C 85% 4.6 mph SE7.4 kmh SE 4.6 mph7.4 kmh 29.93 in1013.5 mb - 0.00 in0.0 mm 0.00 in0.0 mm
02:05 PM 56.0°F13.3°C 51.6°F10.9°C 85% 4.6 mph SE7.4 kmh SE 4.6 mph7.4 kmh 29.93 in1013.5 mb - 0.00 in0.0 mm 0.00 in0.0 mm
02:10 PM 56.1°F13.4°C 51.7°F10.9°C 85% 8.1 mph SE13.0 kmh SE 16.1 mph25.9 kmh 29.93 in1013.5 mb - 0.00 in0.0 mm 0.00 in0.0 mm
02:15 PM 56.2°F13.4°C 51.7°F10.9°C 85% 9.2 mph SE14.8 kmh SE 12.7 mph20.4 kmh 29.92 in1013.2 mb - 0.00 in0.0 mm 0.00 in0.0 mm
02:20 PM 56.3°F13.5°C 51.8°F11.0°C 85% 6.9 mph SE11.1 kmh SE 16.1 mph25.9 kmh 29.91 in1012.9 mb - 0.00 in0.0 mm 0.00 in0.0 mm
02:25 PM 56.5°F13.6°C 52.1°F11.2°C 85% 8.1 mph SE13.0 kmh SE 11.5 mph18.5 kmh 29.91 in1012.9 mb - 0.00 in0.0 mm 0.00 in0.0 mm
02:30 PM 56.8°F13.8°C 52.0°F11.1°C 84% 8.1 mph SE13.0 kmh SE 8.1 mph13.0 kmh 29.91 in1012.9 mb - 0.00 in0.0 mm 0.00 in0.0 mm
02:35 PM 56.9°F13.8°C 52.1°F11.2°C 84% 8.1 mph SE13.0 kmh SE 12.7 mph20.4 kmh 29.91 in1012.9 mb - 0.00 in0.0 mm 0.00 in0.0 mm
02:40 PM 57.0°F13.9°C 52.2°F11.2°C 84% 6.9 mph SE11.1 kmh SE 13.8 mph22.2 kmh 29.91 in1012.9 mb - 0.00 in0.0 mm 0.00 in0.0 mm
02:45 PM 57.1°F13.9°C 52.3°F11.3°C 84% 8.1 mph SE13.0 kmh SE 12.7 mph20.4 kmh 29.91 in1012.9 mb - 0.00 in0.0 mm 0.00 in0.0 mm
02:50 PM 57.2°F14.0°C 52.4°F11.3°C 84% 4.6 mph SE7.4 kmh SE 12.7 mph20.4 kmh 29.91 in1012.9 mb - 0.00 in0.0 mm 0.00 in0.0 mm
02:55 PM 57.4°F14.1°C 52.3°F11.3°C 83% 6.9 mph SE11.1 kmh SE 12.7 mph20.4 kmh 29.91 in1012.9 mb - 0.00 in0.0 mm 0.00 in0.0 mm
03:00 PM 57.5°F14.2°C 52.4°F11.3°C 83% 4.6 mph SSE7.4 kmh SSE 9.2 mph14.8 kmh 29.90 in1012.5 mb - 0.00 in0.0 mm 0.00 in0.0 mm
03:05 PM 57.7°F14.3°C 52.5°F11.4°C 83% 4.6 mph SE7.4 kmh SE 5.8 mph9.3 kmh 29.90 in1012.5 mb - 0.00 in0.0 mm 0.00 in0.0 mm
03:10 PM 57.8°F14.3°C 52.7°F11.5°C 83% 8.1 mph SE13.0 kmh SE 12.7 mph20.4 kmh 29.90 in1012.5 mb - 0.00 in0.0 mm 0.00 in0.0 mm
03:15 PM 58.0°F14.4°C 52.9°F11.6°C 83% 5.8 mph SE9.3 kmh SE 6.9 mph11.1 kmh 29.90 in1012.5 mb - 0.00 in0.0 mm 0.00 in0.0 mm
03:20 PM 58.0°F14.4°C 52.9°F11.6°C 83% 8.1 mph SE13.0 kmh SE 12.7 mph20.4 kmh 29.89 in1012.2 mb - 0.00 in0.0 mm 0.00 in0.0 mm
03:25 PM 58.2°F14.6°C 53.0°F11.7°C 83% 5.8 mph SE9.3 kmh SE 8.1 mph13.0 kmh 29.90 in1012.5 mb - 0.00 in0.0 mm 0.00 in0.0 mm
03:30 PM 58.3°F14.6°C 52.8°F11.6°C 82% 6.9 mph SE11.1 kmh SE 9.2 mph14.8 kmh 29.90 in1012.5 mb - 0.00 in0.0 mm 0.00 in0.0 mm
03:35 PM 58.4°F14.7°C 52.9°F11.6°C 82% 4.6 mph SSE7.4 kmh SSE 6.9 mph11.1 kmh 29.90 in1012.5 mb - 0.00 in0.0 mm 0.00 in0.0 mm
03:40 PM 58.5°F14.7°C 53.0°F11.7°C 82% 6.9 mph SE11.1 kmh SE 10.4 mph16.7 kmh 29.90 in1012.5 mb - 0.00 in0.0 mm 0.00 in0.0 mm
03:45 PM 58.7°F14.8°C 53.2°F11.8°C 82% 5.8 mph SE9.3 kmh SE 8.1 mph13.0 kmh 29.90 in1012.5 mb - 0.00 in0.0 mm 0.00 in0.0 mm
03:50 PM 58.8°F14.9°C 53.7°F12.1°C 83% 10.4 mph SE16.7 kmh SE 13.8 mph22.2 kmh 29.90 in1012.5 mb - 0.00 in0.0 mm 0.00 in0.0 mm
03:55 PM 59.1°F15.1°C 53.6°F12.0°C 82% 4.6 mph SSE7.4 kmh SSE 8.1 mph13.0 kmh 29.90 in1012.5 mb - 0.00 in0.0 mm 0.00 in0.0 mm
04:00 PM 59.2°F15.1°C 53.7°F12.1°C 82% 6.9 mph SE11.1 kmh SE 6.9 mph11.1 kmh 29.90 in1012.5 mb - 0.00 in0.0 mm 0.00 in0.0 mm
04:05 PM 59.2°F15.1°C 53.7°F12.1°C 82% 4.6 mph SE7.4 kmh SE 8.1 mph13.0 kmh 29.90 in1012.5 mb - 0.00 in0.0 mm 0.00 in0.0 mm
04:10 PM 59.4°F15.2°C 53.9°F12.2°C 82% 5.8 mph SSE9.3 kmh SSE 8.1 mph13.0 kmh 29.90 in1012.5 mb - 0.00 in0.0 mm 0.00 in0.0 mm
04:15 PM 59.6°F15.3°C 54.4°F12.4°C 83% 3.5 mph S5.6 kmh S 4.6 mph7.4 kmh 29.91 in1012.9 mb - 0.00 in0.0 mm 0.00 in0.0 mm
04:20 PM 59.5°F15.3°C 54.6°F12.6°C 84% 6.9 mph SSE11.1 kmh SSE 12.7 mph20.4 kmh 29.91 in1012.9 mb - 0.00 in0.0 mm 0.00 in0.0 mm
04:25 PM 59.2°F15.1°C 54.7°F12.6°C 85% 6.9 mph SSE11.1 kmh SSE 10.4 mph16.7 kmh 29.91 in1012.9 mb - 0.00 in0.0 mm 0.00 in0.0 mm
04:30 PM 58.8°F14.9°C 54.7°F12.6°C 86% 3.5 mph SSE5.6 kmh SSE 10.4 mph16.7 kmh 29.91 in1012.9 mb - 0.01 in0.3 mm 0.01 in0.3 mm
04:35 PM 58.6°F14.8°C 54.7°F12.6°C 87% 8.1 mph SSE13.0 kmh SSE 10.4 mph16.7 kmh 29.91 in1012.9 mb - 0.00 in0.0 mm 0.01 in0.3 mm
04:40 PM 58.4°F14.7°C 54.8°F12.7°C 88% 4.6 mph SE7.4 kmh SE 6.9 mph11.1 kmh 29.91 in1012.9 mb - 0.01 in0.3 mm 0.02 in0.5 mm
04:45 PM 58.4°F14.7°C 54.9°F12.7°C 88% 5.8 mph SE9.3 kmh SE 6.9 mph11.1 kmh 29.91 in1012.9 mb - 0.00 in0.0 mm 0.02 in0.5 mm
04:50 PM 58.3°F14.6°C 55.1°F12.8°C 89% 4.6 mph SSE7.4 kmh SSE 10.4 mph16.7 kmh 29.91 in1012.9 mb - 0.01 in0.3 mm 0.03 in0.8 mm
04:55 PM 58.1°F14.5°C 54.9°F12.7°C 89% 5.8 mph SSE9.3 kmh SSE 4.6 mph7.4 kmh 29.91 in1012.9 mb - 0.00 in0.0 mm 0.03 in0.8 mm
05:00 PM 57.9°F14.4°C 55.0°F12.8°C 90% 5.8 mph SE9.3 kmh SE 9.2 mph14.8 kmh 29.91 in1012.9 mb - 0.02 in0.5 mm 0.05 in1.3 mm
05:05 PM 57.8°F14.3°C 55.2°F12.9°C 91% 5.8 mph SE9.3 kmh SE 9.2 mph14.8 kmh 29.91 in1012.9 mb - 0.01 in0.3 mm 0.06 in1.5 mm
05:10 PM 57.6°F14.2°C 55.0°F12.8°C 91% 6.9 mph SE11.1 kmh SE 10.4 mph16.7 kmh 29.91 in1012.9 mb - 0.01 in0.3 mm 0.07 in1.8 mm
05:15 PM 57.5°F14.2°C 55.2°F12.9°C 92% 4.6 mph SE7.4 kmh SE 8.1 mph13.0 kmh 29.91 in1012.9 mb - 0.01 in0.3 mm 0.08 in2.0 mm
05:20 PM 57.4°F14.1°C 55.1°F12.8°C 92% 3.5 mph SE5.6 kmh SE 5.8 mph9.3 kmh 29.91 in1012.9 mb - 0.01 in0.3 mm 0.08 in2.0 mm
05:25 PM 57.3°F14.1°C 55.0°F12.8°C 92% 4.6 mph SE7.4 kmh SE 6.9 mph11.1 kmh 29.91 in1012.9 mb - 0.01 in0.3 mm 0.09 in2.3 mm
05:30 PM 57.3°F14.1°C 55.0°F12.8°C 92% 5.8 mph SE9.3 kmh SE 10.4 mph16.7 kmh 29.92 in1013.2 mb - 0.01 in0.3 mm 0.10 in2.5 mm
05:35 PM 57.2°F14.0°C 55.2°F12.9°C 93% 5.8 mph SE9.3 kmh SE 6.9 mph11.1 kmh 29.91 in1012.9 mb - 0.03 in0.8 mm 0.12 in3.0 mm
05:40 PM 57.2°F14.0°C 55.2°F12.9°C 93% 5.8 mph SE9.3 kmh SE 6.9 mph11.1 kmh 29.91 in1012.9 mb - 0.02 in0.5 mm 0.13 in3.3 mm
05:45 PM 57.2°F14.0°C 55.1°F12.8°C 93% 2.3 mph SE3.7 kmh SE 8.1 mph13.0 kmh 29.91 in1012.9 mb - 0.01 in0.3 mm 0.14 in3.6 mm
05:50 PM 57.2°F14.0°C 55.2°F12.9°C 93% 3.5 mph SE5.6 kmh SE 4.6 mph7.4 kmh 29.91 in1012.9 mb - 0.01 in0.3 mm 0.15 in3.8 mm
05:55 PM 57.1°F13.9°C 55.1°F12.8°C 93% 4.6 mph SE7.4 kmh SE 8.1 mph13.0 kmh 29.91 in1012.9 mb - 0.01 in0.3 mm 0.16 in4.1 mm
06:00 PM 57.1°F13.9°C 55.1°F12.8°C 93% 4.6 mph SE7.4 kmh SE 5.8 mph9.3 kmh 29.92 in1013.2 mb - 0.02 in0.5 mm 0.17 in4.3 mm
06:05 PM 57.1°F13.9°C 55.4°F13.0°C 94% 2.3 mph SE3.7 kmh SE 3.5 mph5.6 kmh 29.92 in1013.2 mb - 0.02 in0.5 mm 0.19 in4.8 mm
06:10 PM 57.1°F13.9°C 55.4°F13.0°C 94% 3.5 mph SE5.6 kmh SE 4.6 mph7.4 kmh 29.92 in1013.2 mb - 0.02 in0.5 mm 0.21 in5.3 mm
06:15 PM 57.1°F13.9°C 55.4°F13.0°C 94% 3.5 mph SE5.6 kmh SE 4.6 mph7.4 kmh 29.92 in1013.2 mb - 0.03 in0.8 mm 0.24 in6.1 mm
06:20 PM 57.0°F13.9°C 55.3°F12.9°C 94% 3.5 mph SE5.6 kmh SE 6.9 mph11.1 kmh 29.92 in1013.2 mb - 0.04 in1.0 mm 0.27 in6.9 mm
06:25 PM 57.0°F13.9°C 55.6°F13.1°C 95% 4.6 mph SE7.4 kmh SE 4.6 mph7.4 kmh 29.92 in1013.2 mb - 0.02 in0.5 mm 0.29 in7.4 mm
06:30 PM 57.1°F13.9°C 55.7°F13.2°C 95% 3.5 mph SE5.6 kmh SE 4.6 mph7.4 kmh 29.93 in1013.5 mb - 0.02 in0.5 mm 0.30 in7.6 mm
06:35 PM 57.1°F13.9°C 55.7°F13.2°C 95% 2.3 mph SSE3.7 kmh SSE 4.6 mph7.4 kmh 29.93 in1013.5 mb - 0.00 in0.0 mm 0.30 in7.6 mm
06:40 PM 57.1°F13.9°C 55.7°F13.2°C 95% 2.3 mph SSE3.7 kmh SSE 3.5 mph5.6 kmh 29.92 in1013.2 mb - 0.00 in0.0 mm 0.30 in7.6 mm
06:45 PM 57.0°F13.9°C 55.6°F13.1°C 95% 3.5 mph SE5.6 kmh SE 4.6 mph7.4 kmh 29.92 in1013.2 mb - 0.00 in0.0 mm 0.30 in7.6 mm
06:50 PM 57.0°F13.9°C 55.6°F13.1°C 95% 2.3 mph SE3.7 kmh SE 2.3 mph3.7 kmh 29.93 in1013.5 mb - 0.01 in0.3 mm 0.31 in7.9 mm
06:55 PM 57.0°F13.9°C 55.6°F13.1°C 95% 3.5 mph SSE5.6 kmh SSE 6.9 mph11.1 kmh 29.93 in1013.5 mb - 0.00 in0.0 mm 0.31 in7.9 mm
07:00 PM 57.0°F13.9°C 55.6°F13.1°C 95% 2.3 mph SE3.7 kmh SE 5.8 mph9.3 kmh 29.92 in1013.2 mb - 0.00 in0.0 mm 0.31 in7.9 mm
07:05 PM 57.0°F13.9°C 55.6°F13.1°C 95% 3.5 mph SSE5.6 kmh SSE 6.9 mph11.1 kmh 29.92 in1013.2 mb - 0.01 in0.3 mm 0.32 in8.1 mm
07:10 PM 57.1°F13.9°C 55.7°F13.2°C 95% 3.5 mph SE5.6 kmh SE 4.6 mph7.4 kmh 29.92 in1013.2 mb - 0.00 in0.0 mm 0.32 in8.1 mm
07:15 PM 57.1°F13.9°C 55.7°F13.2°C 95% 3.5 mph SE5.6 kmh SE 8.1 mph13.0 kmh 29.92 in1013.2 mb - 0.00 in0.0 mm 0.32 in8.1 mm
07:20 PM 57.2°F14.0°C 55.8°F13.2°C 95% 4.6 mph SE7.4 kmh SE 8.1 mph13.0 kmh 29.93 in1013.5 mb - 0.00 in0.0 mm 0.32 in8.1 mm
07:25 PM 57.3°F14.1°C 55.9°F13.3°C 95% 3.5 mph SE5.6 kmh SE 6.9 mph11.1 kmh 29.93 in1013.5 mb - 0.00 in0.0 mm 0.32 in8.1 mm
07:30 PM 57.4°F14.1°C 56.0°F13.3°C 95% 3.5 mph SE5.6 kmh SE 4.6 mph7.4 kmh 29.92 in1013.2 mb - 0.00 in0.0 mm 0.32 in8.1 mm
07:35 PM 57.3°F14.1°C 55.9°F13.3°C 95% 3.5 mph SSE5.6 kmh SSE 4.6 mph7.4 kmh 29.92 in1013.2 mb - 0.00 in0.0 mm 0.32 in8.1 mm
07:40 PM 57.4°F14.1°C 56.0°F13.3°C 95% 1.2 mph SE1.9 kmh SE 2.3 mph3.7 kmh 29.93 in1013.5 mb - 0.00 in0.0 mm 0.32 in8.1 mm
07:45 PM 57.4°F14.1°C 56.0°F13.3°C 95% 3.5 mph SSE5.6 kmh SSE 4.6 mph7.4 kmh 29.93 in1013.5 mb - 0.00 in0.0 mm 0.32 in8.1 mm
07:50 PM 57.5°F14.2°C 56.1°F13.4°C 95% 3.5 mph SSE5.6 kmh SSE 8.1 mph13.0 kmh 29.93 in1013.5 mb - 0.00 in0.0 mm 0.32 in8.1 mm
07:55 PM 57.5°F14.2°C 56.1°F13.4°C 95% 4.6 mph SSE7.4 kmh SSE 5.8 mph9.3 kmh 29.92 in1013.2 mb - 0.03 in0.8 mm 0.35 in8.9 mm
08:00 PM 57.5°F14.2°C 56.1°F13.4°C 95% 2.3 mph SE3.7 kmh SE 4.6 mph7.4 kmh 29.92 in1013.2 mb - 0.00 in0.0 mm 0.35 in8.9 mm
08:05 PM 57.5°F14.2°C 56.1°F13.4°C 95% 3.5 mph SE5.6 kmh SE 4.6 mph7.4 kmh 29.92 in1013.2 mb - 0.03 in0.8 mm 0.38 in9.7 mm
08:10 PM 57.5°F14.2°C 56.1°F13.4°C 95% 3.5 mph SSE5.6 kmh SSE 5.8 mph9.3 kmh 29.92 in1013.2 mb - 0.00 in0.0 mm 0.38 in9.7 mm
08:15 PM 57.5°F14.2°C 56.1°F13.4°C 95% 5.8 mph SE9.3 kmh SE 6.9 mph11.1 kmh 29.92 in1013.2 mb - 0.00 in0.0 mm 0.38 in9.7 mm
08:20 PM 57.5°F14.2°C 56.1°F13.4°C 95% 4.6 mph S7.4 kmh S 6.9 mph11.1 kmh 29.92 in1013.2 mb - 0.00 in0.0 mm 0.38 in9.7 mm
08:25 PM 57.5°F14.2°C 56.1°F13.4°C 95% 3.5 mph SSE5.6 kmh SSE 4.6 mph7.4 kmh 29.92 in1013.2 mb - 0.00 in0.0 mm 0.38 in9.7 mm
08:30 PM 57.5°F14.2°C 56.0°F13.3°C 95% 2.3 mph SSE3.7 kmh SSE 5.8 mph9.3 kmh 29.92 in1013.2 mb - 0.00 in0.0 mm 0.38 in9.7 mm
08:35 PM 57.3°F14.1°C 55.9°F13.3°C 95% 1.2 mph SSE1.9 kmh SSE 4.6 mph7.4 kmh 29.92 in1013.2 mb - 0.00 in0.0 mm 0.38 in9.7 mm
08:40 PM 57.1°F13.9°C 55.7°F13.2°C 95% 2.3 mph SSE3.7 kmh SSE 4.6 mph7.4 kmh 29.92 in1013.2 mb - 0.00 in0.0 mm 0.38 in9.7 mm
08:45 PM 57.0°F13.9°C 55.6°F13.1°C 95% 2.3 mph S3.7 kmh S 4.6 mph7.4 kmh 29.92 in1013.2 mb - 0.00 in0.0 mm 0.38 in9.7 mm
08:50 PM 56.8°F13.8°C 55.4°F13.0°C 95% 1.2 mph SSW1.9 kmh SSW 3.5 mph5.6 kmh 29.92 in1013.2 mb - 0.00 in0.0 mm 0.38 in9.7 mm
08:55 PM 56.8°F13.8°C 55.4°F13.0°C 95% Calm Calm 2.3 mph3.7 kmh 29.93 in1013.5 mb - 0.00 in0.0 mm 0.38 in9.7 mm
09:00 PM 56.7°F13.7°C 55.5°F13.1°C 96% 1.2 mph S1.9 kmh S 1.2 mph1.9 kmh 29.93 in1013.5 mb - 0.00 in0.0 mm 0.38 in9.7 mm
09:05 PM 56.4°F13.6°C 55.0°F12.8°C 95% 1.2 mph S1.9 kmh S 2.3 mph3.7 kmh 29.93 in1013.5 mb - 0.00 in0.0 mm 0.38 in9.7 mm
09:10 PM 56.1°F13.4°C 55.0°F12.8°C 96% 2.3 mph S3.7 kmh S 3.5 mph5.6 kmh 29.93 in1013.5 mb - 0.00 in0.0 mm 0.38 in9.7 mm
09:15 PM 55.9°F13.3°C 54.8°F12.7°C 96% 1.2 mph S1.9 kmh S 2.3 mph3.7 kmh 29.93 in1013.5 mb - 0.00 in0.0 mm 0.38 in9.7 mm
09:20 PM 55.7°F13.2°C 54.6°F12.6°C 96% 1.2 mph S1.9 kmh S 2.3 mph3.7 kmh 29.93 in1013.5 mb - 0.00 in0.0 mm 0.38 in9.7 mm
09:25 PM 55.7°F13.2°C 54.9°F12.7°C 97% 2.3 mph SSW3.7 kmh SSW 3.5 mph5.6 kmh 29.93 in1013.5 mb - 0.00 in0.0 mm 0.38 in9.7 mm
09:30 PM 55.7°F13.2°C 54.9°F12.7°C 97% 2.3 mph SW3.7 kmh SW 4.6 mph7.4 kmh 29.93 in1013.5 mb - 0.00 in0.0 mm 0.38 in9.7 mm
09:35 PM 55.8°F13.2°C 54.9°F12.7°C 97% 2.3 mph SSW3.7 kmh SSW 3.5 mph5.6 kmh 29.93 in1013.5 mb - 0.00 in0.0 mm 0.38 in9.7 mm
09:40 PM 55.7°F13.2°C 54.8°F12.7°C 97% 2.3 mph WSW3.7 kmh WSW 4.6 mph7.4 kmh 29.93 in1013.5 mb - 0.00 in0.0 mm 0.38 in9.7 mm
09:45 PM 55.7°F13.2°C 54.8°F12.7°C 97% 2.3 mph SSW3.7 kmh SSW 4.6 mph7.4 kmh 29.93 in1013.5 mb - 0.00 in0.0 mm 0.38 in9.7 mm
09:50 PM 55.7°F13.2°C 54.8°F12.7°C 97% 1.2 mph SSW1.9 kmh SSW 3.5 mph5.6 kmh 29.93 in1013.5 mb - 0.00 in0.0 mm 0.38 in9.7 mm
09:55 PM 55.5°F13.1°C 54.7°F12.6°C 97% 1.2 mph SW1.9 kmh SW 2.3 mph3.7 kmh 29.93 in1013.5 mb - 0.00 in0.0 mm 0.38 in9.7 mm
10:00 PM 55.4°F13.0°C 54.5°F12.5°C 97% Calm Calm -- 29.93 in1013.5 mb - 0.00 in0.0 mm 0.38 in9.7 mm
10:05 PM 55.2°F12.9°C 54.3°F12.4°C 97% Calm Calm 1.2 mph1.9 kmh 29.93 in1013.5 mb - 0.00 in0.0 mm 0.38 in9.7 mm
10:10 PM 55.1°F12.8°C 54.3°F12.4°C 97% 2.3 mph SW3.7 kmh SW 3.5 mph5.6 kmh 29.94 in1013.9 mb - 0.00 in0.0 mm 0.38 in9.7 mm
10:15 PM 55.5°F13.1°C 54.7°F12.6°C 97% 2.3 mph WSW3.7 kmh WSW 4.6 mph7.4 kmh 29.94 in1013.9 mb - 0.00 in0.0 mm 0.38 in9.7 mm
10:20 PM 55.8°F13.2°C 55.0°F12.8°C 97% 3.5 mph W5.6 kmh W 6.9 mph11.1 kmh 29.95 in1014.2 mb - 0.00 in0.0 mm 0.38 in9.7 mm
10:25 PM 56.0°F13.3°C 55.2°F12.9°C 97% 2.3 mph WSW3.7 kmh WSW 4.6 mph7.4 kmh 29.95 in1014.2 mb - 0.00 in0.0 mm 0.38 in9.7 mm
10:30 PM 56.0°F13.3°C 55.2°F12.9°C 97% 2.3 mph WNW3.7 kmh WNW 3.5 mph5.6 kmh 29.94 in1013.9 mb - 0.00 in0.0 mm 0.38 in9.7 mm
10:35 PM 55.9°F13.3°C 55.1°F12.8°C 97% Calm Calm 1.2 mph1.9 kmh 29.94 in1013.9 mb - 0.00 in0.0 mm 0.38 in9.7 mm
10:40 PM 55.8°F13.2°C 55.0°F12.8°C 97% 1.2 mph W1.9 kmh W 4.6 mph7.4 kmh 29.95 in1014.2 mb - 0.00 in0.0 mm 0.38 in9.7 mm
10:45 PM 55.7°F13.2°C 54.9°F12.7°C 97% 3.5 mph W5.6 kmh W 4.6 mph7.4 kmh 29.95 in1014.2 mb - 0.00 in0.0 mm 0.38 in9.7 mm
10:50 PM 55.6°F13.1°C 54.8°F12.7°C 97% 3.5 mph W5.6 kmh W 6.9 mph11.1 kmh 29.96 in1014.6 mb - 0.00 in0.0 mm 0.38 in9.7 mm
10:55 PM 55.6°F13.1°C 54.7°F12.6°C 97% 4.6 mph W7.4 kmh W 11.5 mph18.5 kmh 29.96 in1014.6 mb - 0.00 in0.0 mm 0.38 in9.7 mm
11:00 PM 55.5°F13.1°C 54.6°F12.6°C 97% 4.6 mph WNW7.4 kmh WNW 6.9 mph11.1 kmh 29.96 in1014.6 mb - 0.00 in0.0 mm 0.38 in9.7 mm
11:05 PM 55.3°F12.9°C 54.5°F12.5°C 97% 3.5 mph W5.6 kmh W 5.8 mph9.3 kmh 29.96 in1014.6 mb - 0.00 in0.0 mm 0.38 in9.7 mm
11:10 PM 55.2°F12.9°C 54.4°F12.4°C 97% 3.5 mph WNW5.6 kmh WNW 8.1 mph13.0 kmh 29.97 in1014.9 mb - 0.00 in0.0 mm 0.38 in9.7 mm
11:15 PM 55.1°F12.8°C 54.0°F12.2°C 96% 5.8 mph NW9.3 kmh NW 12.7 mph20.4 kmh 29.97 in1014.9 mb - 0.00 in0.0 mm 0.38 in9.7 mm
11:20 PM 54.9°F12.7°C 53.8°F12.1°C 96% 4.6 mph WNW7.4 kmh WNW 9.2 mph14.8 kmh 29.97 in1014.9 mb - 0.00 in0.0 mm 0.38 in9.7 mm
11:25 PM 54.9°F12.7°C 53.8°F12.1°C 96% 3.5 mph NW5.6 kmh NW 8.1 mph13.0 kmh 29.97 in1014.9 mb - 0.00 in0.0 mm 0.38 in9.7 mm
11:30 PM 54.8°F12.7°C 53.7°F12.1°C 96% 6.9 mph NW11.1 kmh NW 11.5 mph18.5 kmh 29.97 in1014.9 mb - 0.00 in0.0 mm 0.38 in9.7 mm
11:35 PM 54.7°F12.6°C 53.3°F11.8°C 95% 4.6 mph WNW7.4 kmh WNW 6.9 mph11.1 kmh 29.98 in1015.2 mb - 0.00 in0.0 mm 0.38 in9.7 mm
11:40 PM 54.6°F12.6°C 53.2°F11.8°C 95% 5.8 mph NW9.3 kmh NW 9.2 mph14.8 kmh 29.98 in1015.2 mb - 0.00 in0.0 mm 0.38 in9.7 mm
11:45 PM 54.3°F12.4°C 52.9°F11.6°C 95% 6.9 mph NW11.1 kmh NW 11.5 mph18.5 kmh 29.98 in1015.2 mb - 0.00 in0.0 mm 0.38 in9.7 mm
11:50 PM 54.2°F12.3°C 52.8°F11.6°C 95% 5.8 mph NW9.3 kmh NW 10.4 mph16.7 kmh 29.98 in1015.2 mb - 0.00 in0.0 mm 0.38 in9.7 mm
11:55 PM 54.1°F12.3°C 52.7°F11.5°C 95% 9.2 mph NW14.8 kmh NW 13.8 mph22.2 kmh 29.99 in1015.6 mb - 0.00 in0.0 mm 0.38 in9.7 mm